sensor_id;sensor_type;location;lat;lon;timestamp;pressure;altitude;pressure_sealevel;temperature;humidity
21900;BME280;11114;50.658;12.704;2023-11-19T00:02:22;95855.03;;;1.69;83.48
21900;BME280;11114;50.658;12.704;2023-11-19T00:05:10;95854.47;;;1.65;83.55
21900;BME280;11114;50.658;12.704;2023-11-19T00:07:58;95867.41;;;1.65;83.96
21900;BME280;11114;50.658;12.704;2023-11-19T00:10:44;95853.38;;;1.68;83.58
21900;BME280;11114;50.658;12.704;2023-11-19T00:13:32;95855.31;;;1.66;83.70
21900;BME280;11114;50.658;12.704;2023-11-19T00:16:19;95863.34;;;1.63;83.86
21900;BME280;11114;50.658;12.704;2023-11-19T00:19:05;95857.06;;;1.65;84.04
21900;BME280;11114;50.658;12.704;2023-11-19T00:21:52;95840.19;;;1.71;83.94
21900;BME280;11114;50.658;12.704;2023-11-19T00:24:39;95842.09;;;1.69;84.07
21900;BME280;11114;50.658;12.704;2023-11-19T00:27:25;95832.44;;;1.71;83.91
21900;BME280;11114;50.658;12.704;2023-11-19T00:30:13;95832.19;;;1.74;84.11
21900;BME280;11114;50.658;12.704;2023-11-19T00:33:00;95834.63;;;1.75;84.00
21900;BME280;11114;50.658;12.704;2023-11-19T00:35:47;95827.81;;;1.74;83.82
21900;BME280;11114;50.658;12.704;2023-11-19T00:38:34;95818.56;;;1.72;83.92
21900;BME280;11114;50.658;12.704;2023-11-19T00:41:21;95821.81;;;1.74;83.97
21900;BME280;11114;50.658;12.704;2023-11-19T00:44:08;95809.59;;;1.76;83.86
21900;BME280;11114;50.658;12.704;2023-11-19T00:46:55;95806.41;;;1.72;84.23
21900;BME280;11114;50.658;12.704;2023-11-19T00:49:42;95801.38;;;1.71;84.58
21900;BME280;11114;50.658;12.704;2023-11-19T00:52:29;95790.63;;;1.66;85.08
21900;BME280;11114;50.658;12.704;2023-11-19T00:55:16;95793.06;;;1.58;85.57
21900;BME280;11114;50.658;12.704;2023-11-19T00:58:03;95791.44;;;1.57;86.08
21900;BME280;11114;50.658;12.704;2023-11-19T01:00:50;95788.03;;;1.56;86.28
21900;BME280;11114;50.658;12.704;2023-11-19T01:03:37;95775.78;;;1.58;86.06
21900;BME280;11114;50.658;12.704;2023-11-19T01:06:30;95770.59;;;1.58;86.30
21900;BME280;11114;50.658;12.704;2023-11-19T01:09:17;95772.25;;;1.59;87.06
21900;BME280;11114;50.658;12.704;2023-11-19T01:12:03;95777.81;;;1.55;87.25
21900;BME280;11114;50.658;12.704;2023-11-19T01:14:50;95761.06;;;1.49;87.79
21900;BME280;11114;50.658;12.704;2023-11-19T01:17:38;95760.25;;;1.49;87.89
21900;BME280;11114;50.658;12.704;2023-11-19T01:20:24;95757.38;;;1.52;88.17
21900;BME280;11114;50.658;12.704;2023-11-19T01:23:10;95761.50;;;1.54;88.44
21900;BME280;11114;50.658;12.704;2023-11-19T01:25:56;95757.94;;;1.46;88.78
21900;BME280;11114;50.658;12.704;2023-11-19T01:28:42;95751.81;;;1.47;89.16
21900;BME280;11114;50.658;12.704;2023-11-19T01:31:35;95738.72;;;1.48;89.56
21900;BME280;11114;50.658;12.704;2023-11-19T01:34:21;95727.59;;;1.48;89.52
21900;BME280;11114;50.658;12.704;2023-11-19T01:37:08;95718.34;;;1.45;89.88
21900;BME280;11114;50.658;12.704;2023-11-19T01:40:00;95726.63;;;1.49;89.95
21900;BME280;11114;50.658;12.704;2023-11-19T01:42:49;95712.59;;;1.51;89.56
21900;BME280;11114;50.658;12.704;2023-11-19T01:45:36;95705.25;;;1.47;90.07
21900;BME280;11114;50.658;12.704;2023-11-19T01:48:23;95697.66;;;1.45;90.39
21900;BME280;11114;50.658;12.704;2023-11-19T01:51:09;95698.19;;;1.49;90.56
21900;BME280;11114;50.658;12.704;2023-11-19T01:53:57;95683.72;;;1.46;90.81
21900;BME280;11114;50.658;12.704;2023-11-19T01:56:44;95673.97;;;1.50;91.15
21900;BME280;11114;50.658;12.704;2023-11-19T01:59:31;95662.78;;;1.49;91.00
21900;BME280;11114;50.658;12.704;2023-11-19T02:02:18;95648.34;;;1.47;91.50
21900;BME280;11114;50.658;12.704;2023-11-19T02:05:10;95651.91;;;1.46;91.64
21900;BME280;11114;50.658;12.704;2023-11-19T02:07:58;95646.47;;;1.49;92.13
21900;BME280;11114;50.658;12.704;2023-11-19T02:10:45;95654.63;;;1.54;92.24
21900;BME280;11114;50.658;12.704;2023-11-19T02:13:32;95646.16;;;1.52;92.50
21900;BME280;11114;50.658;12.704;2023-11-19T02:16:18;95632.28;;;1.53;92.50
21900;BME280;11114;50.658;12.704;2023-11-19T02:19:06;95631.47;;;1.52;93.29
21900;BME280;11114;50.658;12.704;2023-11-19T02:21:52;95626.16;;;1.54;93.68
21900;BME280;11114;50.658;12.704;2023-11-19T02:24:39;95630.38;;;1.55;93.83
21900;BME280;11114;50.658;12.704;2023-11-19T02:30:36;95637.59;;;1.61;94.47
21900;BME280;11114;50.658;12.704;2023-11-19T02:33:23;95632.16;;;1.64;94.40
21900;BME280;11114;50.658;12.704;2023-11-19T02:36:11;95622.47;;;1.66;94.70
21900;BME280;11114;50.658;12.704;2023-11-19T02:38:58;95625.72;;;1.68;95.60
21900;BME280;11114;50.658;12.704;2023-11-19T02:41:45;95608.44;;;1.68;95.37
21900;BME280;11114;50.658;12.704;2023-11-19T02:44:30;95606.41;;;1.72;95.36
21900;BME280;11114;50.658;12.704;2023-11-19T02:47:17;95600.94;;;1.75;95.69
21900;BME280;11114;50.658;12.704;2023-11-19T02:50:04;95591.13;;;1.78;95.50
21900;BME280;11114;50.658;12.704;2023-11-19T02:52:54;95595.06;;;1.82;95.44
21900;BME280;11114;50.658;12.704;2023-11-19T02:55:43;95592.47;;;1.82;95.50
21900;BME280;11114;50.658;12.704;2023-11-19T02:58:34;95595.06;;;1.82;95.58
21900;BME280;11114;50.658;12.704;2023-11-19T03:01:22;95575.03;;;1.84;95.89
21900;BME280;11114;50.658;12.704;2023-11-19T03:04:20;95584.44;;;1.85;95.90
21900;BME280;11114;50.658;12.704;2023-11-19T03:07:07;95565.13;;;1.80;96.36
21900;BME280;11114;50.658;12.704;2023-11-19T03:09:54;95565.25;;;1.78;96.86
21900;BME280;11114;50.658;12.704;2023-11-19T03:12:41;95560.22;;;1.77;97.52
21900;BME280;11114;50.658;12.704;2023-11-19T03:15:28;95555.72;;;1.79;97.26
21900;BME280;11114;50.658;12.704;2023-11-19T03:18:14;95543.19;;;1.84;97.14
21900;BME280;11114;50.658;12.704;2023-11-19T03:21:01;95520.69;;;1.84;96.91
21900;BME280;11114;50.658;12.704;2023-11-19T03:23:48;95515.53;;;1.84;96.84
21900;BME280;11114;50.658;12.704;2023-11-19T03:26:34;95521.22;;;1.88;97.50
21900;BME280;11114;50.658;12.704;2023-11-19T03:29:21;95526.13;;;1.91;97.76
21900;BME280;11114;50.658;12.704;2023-11-19T03:32:07;95515.50;;;1.94;98.10
21900;BME280;11114;50.658;12.704;2023-11-19T03:34:54;95502.25;;;1.97;98.34
21900;BME280;11114;50.658;12.704;2023-11-19T03:37:41;95493.81;;;1.95;98.67
21900;BME280;11114;50.658;12.704;2023-11-19T03:40:28;95500.19;;;2.00;98.63
21900;BME280;11114;50.658;12.704;2023-11-19T03:43:15;95493.25;;;2.01;98.67
21900;BME280;11114;50.658;12.704;2023-11-19T03:46:01;95485.88;;;2.06;98.82
21900;BME280;11114;50.658;12.704;2023-11-19T03:48:49;95486.25;;;2.11;99.18
21900;BME280;11114;50.658;12.704;2023-11-19T03:51:36;95503.81;;;2.17;98.76
21900;BME280;11114;50.658;12.704;2023-11-19T03:54:23;95490.94;;;2.24;98.85
21900;BME280;11114;50.658;12.704;2023-11-19T03:57:09;95497.50;;;2.28;98.59
21900;BME280;11114;50.658;12.704;2023-11-19T03:59:59;95486.72;;;2.33;98.51
21900;BME280;11114;50.658;12.704;2023-11-19T04:02:46;95492.53;;;2.35;98.47
21900;BME280;11114;50.658;12.704;2023-11-19T04:05:33;95486.28;;;2.37;98.34
21900;BME280;11114;50.658;12.704;2023-11-19T04:08:19;95484.50;;;2.38;98.47
21900;BME280;11114;50.658;12.704;2023-11-19T04:11:06;95479.47;;;2.36;98.83
21900;BME280;11114;50.658;12.704;2023-11-19T04:13:54;95487.06;;;2.38;98.83
21900;BME280;11114;50.658;12.704;2023-11-19T04:16:41;95483.25;;;2.42;98.91
21900;BME280;11114;50.658;12.704;2023-11-19T04:19:29;95479.53;;;2.44;98.95
21900;BME280;11114;50.658;12.704;2023-11-19T04:22:16;95478.59;;;2.45;98.70
21900;BME280;11114;50.658;12.704;2023-11-19T04:25:05;95480.50;;;2.43;99.23
21900;BME280;11114;50.658;12.704;2023-11-19T04:27:51;95456.53;;;2.41;99.11
21900;BME280;11114;50.658;12.704;2023-11-19T04:30:38;95453.78;;;2.43;99.44
21900;BME280;11114;50.658;12.704;2023-11-19T04:33:25;95458.66;;;2.46;99.98
21900;BME280;11114;50.658;12.704;2023-11-19T04:36:11;95453.06;;;2.50;100.00
21900;BME280;11114;50.658;12.704;2023-11-19T04:38:58;95418.13;;;2.54;99.92
21900;BME280;11114;50.658;12.704;2023-11-19T04:41:51;95442.09;;;2.56;100.00
21900;BME280;11114;50.658;12.704;2023-11-19T04:44:39;95449.72;;;2.58;100.00
21900;BME280;11114;50.658;12.704;2023-11-19T04:47:25;95443.28;;;2.62;100.00
21900;BME280;11114;50.658;12.704;2023-11-19T04:50:12;95436.97;;;2.64;100.00
21900;BME280;11114;50.658;12.704;2023-11-19T04:52:58;95432.34;;;2.68;100.00
21900;BME280;11114;50.658;12.704;2023-11-19T04:55:46;95433.13;;;2.68;100.00
21900;BME280;11114;50.658;12.704;2023-11-19T04:58:33;95427.94;;;2.68;100.00
21900;BME280;11114;50.658;12.704;2023-11-19T05:01:20;95443.22;;;2.71;100.00
21900;BME280;11114;50.658;12.704;2023-11-19T05:04:07;95443.56;;;2.76;100.00
21900;BME280;11114;50.658;12.704;2023-11-19T05:06:54;95440.38;;;2.82;100.00
21900;BME280;11114;50.658;12.704;2023-11-19T05:09:40;95454.97;;;2.83;100.00
21900;BME280;11114;50.658;12.704;2023-11-19T05:12:27;95456.13;;;2.89;100.00
21900;BME280;11114;50.658;12.704;2023-11-19T05:15:13;95453.09;;;2.93;100.00
21900;BME280;11114;50.658;12.704;2023-11-19T05:18:00;95449.25;;;2.97;100.00
21900;BME280;11114;50.658;12.704;2023-11-19T05:20:47;95445.38;;;3.01;100.00
21900;BME280;11114;50.658;12.704;2023-11-19T05:23:34;95446.44;;;3.08;100.00
21900;BME280;11114;50.658;12.704;2023-11-19T05:26:22;95444.47;;;3.10;100.00
21900;BME280;11114;50.658;12.704;2023-11-19T05:29:08;95448.25;;;3.15;100.00
21900;BME280;11114;50.658;12.704;2023-11-19T05:31:55;95409.84;;;3.19;100.00
21900;BME280;11114;50.658;12.704;2023-11-19T05:34:41;95407.63;;;3.24;100.00
21900;BME280;11114;50.658;12.704;2023-11-19T05:37:30;95412.38;;;3.28;100.00
21900;BME280;11114;50.658;12.704;2023-11-19T05:40:17;95423.91;;;3.34;100.00
21900;BME280;11114;50.658;12.704;2023-11-19T05:43:05;95427.81;;;3.38;100.00
21900;BME280;11114;50.658;12.704;2023-11-19T05:45:52;95407.56;;;3.41;100.00
21900;BME280;11114;50.658;12.704;2023-11-19T05:48:39;95411.94;;;3.41;100.00
21900;BME280;11114;50.658;12.704;2023-11-19T05:51:25;95404.47;;;3.38;100.00
21900;BME280;11114;50.658;12.704;2023-11-19T05:54:12;95427.34;;;3.42;100.00
21900;BME280;11114;50.658;12.704;2023-11-19T05:56:59;95413.91;;;3.47;100.00
21900;BME280;11114;50.658;12.704;2023-11-19T05:59:46;95422.38;;;3.49;100.00
21900;BME280;11114;50.658;12.704;2023-11-19T06:02:33;95403.91;;;3.52;100.00
21900;BME280;11114;50.658;12.704;2023-11-19T06:05:19;95396.75;;;3.54;100.00
21900;BME280;11114;50.658;12.704;2023-11-19T06:08:05;95380.38;;;3.53;100.00
21900;BME280;11114;50.658;12.704;2023-11-19T06:10:53;95380.88;;;3.57;100.00
21900;BME280;11114;50.658;12.704;2023-11-19T06:13:39;95386.75;;;3.59;100.00
21900;BME280;11114;50.658;12.704;2023-11-19T06:16:25;95385.63;;;3.61;100.00
21900;BME280;11114;50.658;12.704;2023-11-19T06:19:12;95390.63;;;3.63;100.00
21900;BME280;11114;50.658;12.704;2023-11-19T06:21:59;95394.88;;;3.64;100.00
21900;BME280;11114;50.658;12.704;2023-11-19T06:24:45;95398.13;;;3.66;100.00
21900;BME280;11114;50.658;12.704;2023-11-19T06:27:33;95391.00;;;3.68;100.00
21900;BME280;11114;50.658;12.704;2023-11-19T06:30:19;95397.50;;;3.72;100.00
21900;BME280;11114;50.658;12.704;2023-11-19T06:33:07;95385.00;;;3.75;100.00
21900;BME280;11114;50.658;12.704;2023-11-19T06:35:53;95389.41;;;3.75;100.00
21900;BME280;11114;50.658;12.704;2023-11-19T06:38:42;95404.00;;;3.76;100.00
21900;BME280;11114;50.658;12.704;2023-11-19T06:41:29;95404.66;;;3.78;100.00
21900;BME280;11114;50.658;12.704;2023-11-19T06:44:21;95416.53;;;3.80;100.00
21900;BME280;11114;50.658;12.704;2023-11-19T06:47:07;95422.22;;;3.83;100.00
21900;BME280;11114;50.658;12.704;2023-11-19T06:49:54;95412.50;;;3.85;100.00
21900;BME280;11114;50.658;12.704;2023-11-19T06:52:41;95420.91;;;3.87;100.00
21900;BME280;11114;50.658;12.704;2023-11-19T06:55:28;95428.41;;;3.90;100.00
21900;BME280;11114;50.658;12.704;2023-11-19T06:58:14;95432.31;;;3.94;100.00
21900;BME280;11114;50.658;12.704;2023-11-19T07:01:00;95426.50;;;4.00;100.00
21900;BME280;11114;50.658;12.704;2023-11-19T07:03:47;95434.31;;;4.08;100.00
21900;BME280;11114;50.658;12.704;2023-11-19T07:06:35;95456.91;;;4.16;100.00
21900;BME280;11114;50.658;12.704;2023-11-19T07:09:21;95442.94;;;4.17;100.00
21900;BME280;11114;50.658;12.704;2023-11-19T07:12:09;95451.41;;;4.27;100.00
21900;BME280;11114;50.658;12.704;2023-11-19T07:14:55;95458.09;;;4.29;100.00
21900;BME280;11114;50.658;12.704;2023-11-19T07:17:42;95446.09;;;4.36;100.00
21900;BME280;11114;50.658;12.704;2023-11-19T07:20:29;95449.19;;;4.40;100.00
21900;BME280;11114;50.658;12.704;2023-11-19T07:23:17;95430.34;;;4.46;100.00
21900;BME280;11114;50.658;12.704;2023-11-19T07:26:07;95432.78;;;4.47;100.00
21900;BME280;11114;50.658;12.704;2023-11-19T07:28:55;95431.50;;;4.51;100.00
21900;BME280;11114;50.658;12.704;2023-11-19T07:31:42;95423.22;;;4.56;100.00
21900;BME280;11114;50.658;12.704;2023-11-19T07:34:30;95434.44;;;4.64;100.00
21900;BME280;11114;50.658;12.704;2023-11-19T07:37:17;95446.81;;;4.70;100.00
21900;BME280;11114;50.658;12.704;2023-11-19T07:40:06;95446.16;;;4.76;100.00
21900;BME280;11114;50.658;12.704;2023-11-19T07:42:56;95439.53;;;4.81;100.00
21900;BME280;11114;50.658;12.704;2023-11-19T07:45:43;95440.00;;;4.85;100.00
21900;BME280;11114;50.658;12.704;2023-11-19T07:48:31;95429.59;;;4.85;100.00
21900;BME280;11114;50.658;12.704;2023-11-19T07:51:17;95434.66;;;4.86;100.00
21900;BME280;11114;50.658;12.704;2023-11-19T07:54:03;95435.16;;;4.90;100.00
21900;BME280;11114;50.658;12.704;2023-11-19T07:56:50;95435.16;;;4.90;100.00
21900;BME280;11114;50.658;12.704;2023-11-19T07:59:37;95449.28;;;4.87;100.00
21900;BME280;11114;50.658;12.704;2023-11-19T08:02:24;95454.97;;;4.91;100.00
21900;BME280;11114;50.658;12.704;2023-11-19T08:05:11;95445.19;;;4.93;100.00
21900;BME280;11114;50.658;12.704;2023-11-19T08:07:57;95445.06;;;4.94;100.00
21900;BME280;11114;50.658;12.704;2023-11-19T08:10:44;95440.53;;;4.96;100.00
21900;BME280;11114;50.658;12.704;2023-11-19T08:13:30;95440.53;;;4.96;100.00
21900;BME280;11114;50.658;12.704;2023-11-19T08:16:17;95434.00;;;5.00;100.00
21900;BME280;11114;50.658;12.704;2023-11-19T08:19:04;95437.75;;;5.06;100.00
21900;BME280;11114;50.658;12.704;2023-11-19T08:21:51;95446.19;;;5.08;100.00
21900;BME280;11114;50.658;12.704;2023-11-19T08:24:37;95443.78;;;5.14;100.00
21900;BME280;11114;50.658;12.704;2023-11-19T08:27:23;95460.84;;;5.17;100.00
21900;BME280;11114;50.658;12.704;2023-11-19T08:30:14;95448.31;;;5.20;100.00
21900;BME280;11114;50.658;12.704;2023-11-19T08:33:00;95438.06;;;5.27;100.00
21900;BME280;11114;50.658;12.704;2023-11-19T08:35:49;95444.56;;;5.31;100.00
21900;BME280;11114;50.658;12.704;2023-11-19T08:38:35;95460.16;;;5.39;100.00
21900;BME280;11114;50.658;12.704;2023-11-19T08:41:22;95460.50;;;5.44;100.00
21900;BME280;11114;50.658;12.704;2023-11-19T08:44:08;95458.38;;;5.47;100.00
21900;BME280;11114;50.658;12.704;2023-11-19T08:46:54;95461.75;;;5.48;100.00
21900;BME280;11114;50.658;12.704;2023-11-19T08:49:40;95457.22;;;5.49;100.00
21900;BME280;11114;50.658;12.704;2023-11-19T08:52:27;95474.94;;;5.54;100.00
21900;BME280;11114;50.658;12.704;2023-11-19T08:55:14;95454.13;;;5.54;100.00
21900;BME280;11114;50.658;12.704;2023-11-19T08:58:00;95463.06;;;5.59;100.00
21900;BME280;11114;50.658;12.704;2023-11-19T09:00:48;95474.75;;;5.63;100.00
21900;BME280;11114;50.658;12.704;2023-11-19T09:03:34;95454.41;;;5.67;100.00
21900;BME280;11114;50.658;12.704;2023-11-19T09:06:21;95458.13;;;5.72;100.00
21900;BME280;11114;50.658;12.704;2023-11-19T09:09:08;95463.66;;;5.77;100.00
21900;BME280;11114;50.658;12.704;2023-11-19T09:11:55;95444.09;;;5.81;100.00
21900;BME280;11114;50.658;12.704;2023-11-19T09:14:42;95454.38;;;5.83;100.00
21900;BME280;11114;50.658;12.704;2023-11-19T09:17:32;95454.84;;;5.86;100.00
21900;BME280;11114;50.658;12.704;2023-11-19T09:20:20;95449.94;;;5.91;100.00
21900;BME280;11114;50.658;12.704;2023-11-19T09:23:07;95458.09;;;5.96;100.00
21900;BME280;11114;50.658;12.704;2023-11-19T09:25:55;95463.59;;;6.01;100.00
21900;BME280;11114;50.658;12.704;2023-11-19T09:28:42;95466.84;;;6.03;100.00
21900;BME280;11114;50.658;12.704;2023-11-19T09:31:29;95465.22;;;6.02;100.00
21900;BME280;11114;50.658;12.704;2023-11-19T09:34:15;95462.63;;;6.02;100.00
21900;BME280;11114;50.658;12.704;2023-11-19T09:37:02;95471.22;;;6.03;100.00
21900;BME280;11114;50.658;12.704;2023-11-19T09:39:48;95460.97;;;6.01;100.00
21900;BME280;11114;50.658;12.704;2023-11-19T09:42:43;95466.53;;;5.98;100.00
21900;BME280;11114;50.658;12.704;2023-11-19T09:45:48;95467.69;;;5.96;100.00
21900;BME280;11114;50.658;12.704;2023-11-19T09:48:36;95467.84;;;5.94;100.00
21900;BME280;11114;50.658;12.704;2023-11-19T09:51:26;95469.47;;;5.95;100.00
21900;BME280;11114;50.658;12.704;2023-11-19T09:54:13;95462.63;;;5.94;100.00
21900;BME280;11114;50.658;12.704;2023-11-19T09:57:01;95453.50;;;5.98;100.00
21900;BME280;11114;50.658;12.704;2023-11-19T09:59:51;95453.16;;;6.01;100.00
21900;BME280;11114;50.658;12.704;2023-11-19T10:02:38;95457.53;;;6.09;100.00
21900;BME280;11114;50.658;12.704;2023-11-19T10:05:29;95458.03;;;6.12;100.00
21900;BME280;11114;50.658;12.704;2023-11-19T10:08:15;95455.56;;;6.19;100.00
21900;BME280;11114;50.658;12.704;2023-11-19T10:11:02;95456.97;;;6.29;100.00
21900;BME280;11114;50.658;12.704;2023-11-19T10:13:49;95457.38;;;6.40;100.00
21900;BME280;11114;50.658;12.704;2023-11-19T10:16:35;95460.94;;;6.47;99.51
21900;BME280;11114;50.658;12.704;2023-11-19T10:19:21;95460.78;;;6.57;98.82
21900;BME280;11114;50.658;12.704;2023-11-19T10:22:08;95463.97;;;6.67;98.52
21900;BME280;11114;50.658;12.704;2023-11-19T10:24:55;95472.72;;;6.74;97.66
21900;BME280;11114;50.658;12.704;2023-11-19T10:27:43;95453.75;;;6.80;94.30
21900;BME280;11114;50.658;12.704;2023-11-19T10:30:30;95447.38;;;6.82;93.82
21900;BME280;11114;50.658;12.704;2023-11-19T10:33:17;95466.59;;;6.89;93.41
21900;BME280;11114;50.658;12.704;2023-11-19T10:36:07;95463.09;;;6.97;93.40
21900;BME280;11114;50.658;12.704;2023-11-19T10:38:55;95458.66;;;7.05;92.50
21900;BME280;11114;50.658;12.704;2023-11-19T10:41:41;95447.31;;;7.13;93.30
21900;BME280;11114;50.658;12.704;2023-11-19T10:44:33;95451.41;;;7.15;92.81
21900;BME280;11114;50.658;12.704;2023-11-19T10:47:23;95451.28;;;7.09;90.31
21900;BME280;11114;50.658;12.704;2023-11-19T10:50:12;95448.22;;;7.05;90.59
21900;BME280;11114;50.658;12.704;2023-11-19T10:52:59;95451.16;;;7.02;90.43
21900;BME280;11114;50.658;12.704;2023-11-19T10:55:47;95449.25;;;6.96;89.33
21900;BME280;11114;50.658;12.704;2023-11-19T10:58:35;95441.06;;;6.99;89.96
21900;BME280;11114;50.658;12.704;2023-11-19T11:01:27;95446.28;;;6.99;89.49
21900;BME280;11114;50.658;12.704;2023-11-19T11:04:24;95441.25;;;6.98;88.79
21900;BME280;11114;50.658;12.704;2023-11-19T11:07:15;95438.63;;;6.98;88.82
21900;BME280;11114;50.658;12.704;2023-11-19T11:10:02;95439.63;;;6.97;88.83
21900;BME280;11114;50.658;12.704;2023-11-19T11:12:54;95440.59;;;6.96;88.43
21900;BME280;11114;50.658;12.704;2023-11-19T11:15:45;95434.94;;;6.92;87.95
21900;BME280;11114;50.658;12.704;2023-11-19T11:18:33;95429.56;;;6.94;88.38
21900;BME280;11114;50.658;12.704;2023-11-19T11:21:21;95420.09;;;6.93;87.64
21900;BME280;11114;50.658;12.704;2023-11-19T11:30:43;95429.72;;;6.92;88.44
21900;BME280;11114;50.658;12.704;2023-11-19T11:34:16;95423.31;;;6.95;88.42
21900;BME280;11114;50.658;12.704;2023-11-19T11:37:19;95427.88;;;7.01;88.57
21900;BME280;11114;50.658;12.704;2023-11-19T11:40:16;95432.38;;;7.07;88.51
21900;BME280;11114;50.658;12.704;2023-11-19T11:43:04;95432.50;;;7.13;88.22
21900;BME280;11114;50.658;12.704;2023-11-19T11:45:51;95432.22;;;7.22;88.32
21900;BME280;11114;50.658;12.704;2023-11-19T11:48:44;95423.19;;;7.33;87.82
21900;BME280;11114;50.658;12.704;2023-11-19T11:54:31;95400.53;;;7.77;86.46
21900;BME280;11114;50.658;12.704;2023-11-19T11:57:18;95399.16;;;7.95;85.19
21900;BME280;11114;50.658;12.704;2023-11-19T12:00:12;95386.56;;;8.13;82.52
21900;BME280;11114;50.658;12.704;2023-11-19T12:03:08;95386.97;;;8.31;83.65
21900;BME280;11114;50.658;12.704;2023-11-19T12:05:54;95389.25;;;8.34;82.60
21900;BME280;11114;50.658;12.704;2023-11-19T12:08:41;95373.06;;;8.30;82.40
21900;BME280;11114;50.658;12.704;2023-11-19T12:11:30;95381.47;;;8.26;81.91
21900;BME280;11114;50.658;12.704;2023-11-19T12:17:47;95378.69;;;8.27;81.06
21900;BME280;11114;50.658;12.704;2023-11-19T12:20:37;95376.97;;;8.20;80.63
21900;BME280;11114;50.658;12.704;2023-11-19T12:23:29;95373.06;;;8.09;79.95
21900;BME280;11114;50.658;12.704;2023-11-19T12:26:35;95378.34;;;8.01;79.63
21900;BME280;11114;50.658;12.704;2023-11-19T12:29:22;95367.91;;;8.01;80.22
21900;BME280;11114;50.658;12.704;2023-11-19T12:32:08;95370.34;;;8.03;80.73
21900;BME280;11114;50.658;12.704;2023-11-19T12:34:59;95366.75;;;8.04;80.72
21900;BME280;11114;50.658;12.704;2023-11-19T12:37:47;95366.94;;;8.02;80.20
21900;BME280;11114;50.658;12.704;2023-11-19T12:40:34;95375.72;;;8.01;81.05
21900;BME280;11114;50.658;12.704;2023-11-19T12:43:23;95377.38;;;8.02;81.87
21900;BME280;11114;50.658;12.704;2023-11-19T12:46:23;95397.81;;;7.99;82.13
21900;BME280;11114;50.658;12.704;2023-11-19T12:49:11;95446.56;;;7.92;82.88
21900;BME280;11114;50.658;12.704;2023-11-19T12:51:57;95438.00;;;7.69;82.39
21900;BME280;11114;50.658;12.704;2023-11-19T12:54:44;95421.72;;;7.30;82.10
21900;BME280;11114;50.658;12.704;2023-11-19T13:00:26;95417.06;;;6.81;82.38
21900;BME280;11114;50.658;12.704;2023-11-19T13:03:12;95411.84;;;6.81;82.95
21900;BME280;11114;50.658;12.704;2023-11-19T13:08:50;95426.69;;;6.81;84.23
21900;BME280;11114;50.658;12.704;2023-11-19T13:11:41;95425.25;;;6.78;84.52
21900;BME280;11114;50.658;12.704;2023-11-19T13:14:36;95432.91;;;6.80;84.68
21900;BME280;11114;50.658;12.704;2023-11-19T13:17:24;95421.72;;;6.71;84.93
21900;BME280;11114;50.658;12.704;2023-11-19T13:20:11;95422.53;;;6.72;85.80
21900;BME280;11114;50.658;12.704;2023-11-19T13:23:04;95429.69;;;6.70;86.05
21900;BME280;11114;50.658;12.704;2023-11-19T13:25:53;95431.69;;;6.68;86.57
21900;BME280;11114;50.658;12.704;2023-11-19T13:28:39;95427.97;;;6.62;86.99
21900;BME280;11114;50.658;12.704;2023-11-19T13:31:26;95427.84;;;6.56;87.33
21900;BME280;11114;50.658;12.704;2023-11-19T13:34:13;95426.91;;;6.49;88.10
21900;BME280;11114;50.658;12.704;2023-11-19T13:36:59;95427.72;;;6.49;88.40
21900;BME280;11114;50.658;12.704;2023-11-19T13:39:46;95422.19;;;6.44;88.62
21900;BME280;11114;50.658;12.704;2023-11-19T13:42:33;95422.00;;;6.46;89.05
21900;BME280;11114;50.658;12.704;2023-11-19T13:45:19;95424.63;;;6.46;89.16
21900;BME280;11114;50.658;12.704;2023-11-19T13:48:07;95431.13;;;6.42;89.44
21900;BME280;11114;50.658;12.704;2023-11-19T13:50:54;95419.44;;;6.38;89.50
21900;BME280;11114;50.658;12.704;2023-11-19T13:53:41;95426.09;;;6.40;89.94
21900;BME280;11114;50.658;12.704;2023-11-19T13:56:32;95431.97;;;6.42;90.34
21900;BME280;11114;50.658;12.704;2023-11-19T13:59:18;95430.81;;;6.45;90.39
21900;BME280;11114;50.658;12.704;2023-11-19T14:02:04;95419.22;;;6.47;90.26
21900;BME280;11114;50.658;12.704;2023-11-19T14:04:54;95426.03;;;6.56;90.07
21900;BME280;11114;50.658;12.704;2023-11-19T14:07:41;95419.69;;;6.59;89.92
21900;BME280;11114;50.658;12.704;2023-11-19T14:10:27;95424.91;;;6.59;89.88
21900;BME280;11114;50.658;12.704;2023-11-19T14:13:15;95427.84;;;6.56;90.09
21900;BME280;11114;50.658;12.704;2023-11-19T14:16:02;95429.63;;;6.55;89.94
21900;BME280;11114;50.658;12.704;2023-11-19T14:18:51;95428.19;;;6.53;89.80
21900;BME280;11114;50.658;12.704;2023-11-19T14:21:38;95428.84;;;6.47;89.92
21900;BME280;11114;50.658;12.704;2023-11-19T14:24:24;95421.72;;;6.49;89.87
21900;BME280;11114;50.658;12.704;2023-11-19T14:27:11;95417.47;;;6.48;89.79
21900;BME280;11114;50.658;12.704;2023-11-19T14:29:58;95415.00;;;6.46;89.53
21900;BME280;11114;50.658;12.704;2023-11-19T14:32:44;95408.31;;;6.44;89.09
21900;BME280;11114;50.658;12.704;2023-11-19T14:35:32;95404.28;;;6.41;89.23
21900;BME280;11114;50.658;12.704;2023-11-19T14:38:20;95402.19;;;6.37;88.92
21900;BME280;11114;50.658;12.704;2023-11-19T14:41:06;95405.13;;;6.34;88.75
21900;BME280;11114;50.658;12.704;2023-11-19T14:43:52;95403.84;;;6.30;88.69
21900;BME280;11114;50.658;12.704;2023-11-19T14:46:39;95393.25;;;6.31;88.66
21900;BME280;11114;50.658;12.704;2023-11-19T14:49:25;95399.63;;;6.29;88.26
21900;BME280;11114;50.658;12.704;2023-11-19T14:52:16;95397.06;;;6.21;87.21
21900;BME280;11114;50.658;12.704;2023-11-19T14:55:05;95400.66;;;6.20;87.11
21900;BME280;11114;50.658;12.704;2023-11-19T14:57:52;95393.34;;;6.16;87.04
21900;BME280;11114;50.658;12.704;2023-11-19T15:05:03;95401.38;;;6.06;86.40
21900;BME280;11114;50.658;12.704;2023-11-19T15:07:51;95394.53;;;6.05;86.30
21900;BME280;11114;50.658;12.704;2023-11-19T15:10:41;95391.28;;;6.03;85.65